Time;durP1;ratioP1;P1;durP2;ratioP2;P2;SDS_P1;SDS_P2;PMS_P1;PMS_P2;Temp;Humidity;BMP_temperature;BMP_pressure;BME280_temperature;BME280_humidity;BME280_pressure;Samples;Min_cycle;Max_cycle;Signal;HPM_P1;HPM_P2
2023/01/25 00:02:05;;;;;;;;;;;;;;;0.31;99.40;100441.73;105275;1266;97966;-70
2023/01/25 00:04:32;;;;;;;;;;;;;;;0.31;99.44;100443.44;105331;1267;97893;-68
2023/01/25 00:06:59;;;;;;;;;;;;;;;0.29;99.36;100437.33;105339;1266;97951;-70
2023/01/25 00:09:26;;;;;;;;;;;;;;;0.29;99.41;100436.67;105022;1267;97947;-69
2023/01/25 00:11:55;;;;;;;;;;;;;;;0.26;98.98;100437.86;105204;1264;97950;-70
2023/01/25 00:14:22;;;;;;;;;;;;;;;0.21;99.10;100436.43;105303;1267;112214;-68
2023/01/25 00:16:49;;;;;;;;;;;;;;;0.18;99.30;100434.80;105263;1252;97896;-68
2023/01/25 00:19:16;;;;;;;;;;;;;;;0.16;99.42;100434.50;105252;1254;97983;-68
2023/01/25 00:21:43;;;;;;;;;;;;;;;0.16;99.69;100431.92;105300;1266;98087;-69
2023/01/25 00:24:13;;;;;;;;;;;;;;;0.16;99.71;100434.16;105278;1257;98560;-69
2023/01/25 00:26:42;;;;;;;;;;;;;;;0.15;99.72;100433.75;105289;1266;109959;-69
2023/01/25 00:29:11;;;;;;;;;;;;;;;0.14;99.62;100437.19;105349;1257;99609;-70
2023/01/25 00:31:50;;;;;;;;;;;;;;;0.15;99.75;100437.36;105282;1258;108537;-69
2023/01/25 00:34:23;;;;;;;;;;;;;;;0.19;99.81;100432.73;105216;1254;97856;-69
2023/01/25 00:36:57;;;;;;;;;;;;;;;0.19;99.52;100423.94;105216;1268;97998;-69
2023/01/25 00:39:25;;;;;;;;;;;;;;;0.20;99.68;100416.73;105275;1256;112032;-70
2023/01/25 00:41:53;;;;;;;;;;;;;;;0.25;99.77;100415.02;105346;1257;97902;-67
2023/01/25 00:44:20;;;;;;;;;;;;;;;0.27;99.68;100416.16;105326;1264;97896;-67
2023/01/25 00:46:47;;;;;;;;;;;;;;;0.28;99.35;100416.13;105327;1266;97886;-67
2023/01/25 00:49:20;;;;;;;;;;;;;;;0.26;99.22;100419.57;105289;1257;97978;-67
2023/01/25 00:51:47;;;;;;;;;;;;;;;0.26;99.20;100419.38;105272;1264;111922;-67
2023/01/25 00:54:15;;;;;;;;;;;;;;;0.29;99.18;100420.86;105307;1257;97887;-67
2023/01/25 00:56:41;;;;;;;;;;;;;;;0.26;99.16;100423.48;105254;1254;98670;-66
2023/01/25 00:59:09;;;;;;;;;;;;;;;0.23;98.84;100424.73;105231;1257;97915;-67
2023/01/25 01:01:36;;;;;;;;;;;;;;;0.24;99.01;100427.58;105317;1266;97923;-67
2023/01/25 01:04:03;;;;;;;;;;;;;;;0.20;98.95;100428.21;105296;1260;98036;-67
2023/01/25 01:06:34;;;;;;;;;;;;;;;0.17;99.08;100428.46;105258;1268;100082;-67
2023/01/25 01:09:02;;;;;;;;;;;;;;;0.18;99.39;100424.35;105309;1266;107311;-67
2023/01/25 01:11:35;;;;;;;;;;;;;;;0.20;99.31;100421.45;105150;1257;98013;-67
2023/01/25 01:14:02;;;;;;;;;;;;;;;0.19;99.14;100417.80;105151;1257;97883;-67
2023/01/25 01:16:29;;;;;;;;;;;;;;;0.19;99.15;100421.52;105277;1267;97886;-69
2023/01/25 01:18:56;;;;;;;;;;;;;;;0.19;99.25;100417.09;105256;1257;99229;-70
2023/01/25 01:21:23;;;;;;;;;;;;;;;0.19;99.03;100411.98;105313;1266;97929;-69
2023/01/25 01:23:50;;;;;;;;;;;;;;;0.18;99.03;100405.98;105286;1257;97914;-70
2023/01/25 01:26:20;;;;;;;;;;;;;;;0.17;98.80;100403.73;105316;1256;97895;-70
2023/01/25 01:28:47;;;;;;;;;;;;;;;0.15;98.92;100395.01;105268;1267;111661;-70
2023/01/25 01:31:18;;;;;;;;;;;;;;;0.10;98.91;100391.21;105261;1256;98798;-68
2023/01/25 01:33:53;;;;;;;;;;;;;;;0.07;98.98;100388.58;105263;1254;107610;-70
2023/01/25 01:36:22;;;;;;;;;;;;;;;0.07;99.27;100383.48;105302;1257;97911;-70
2023/01/25 01:38:48;;;;;;;;;;;;;;;0.08;99.32;100381.66;105339;1256;98827;-70
2023/01/25 01:41:16;;;;;;;;;;;;;;;0.08;99.31;100382.70;105265;1264;97924;-70
2023/01/25 01:43:43;;;;;;;;;;;;;;;0.10;99.23;100378.23;105247;1266;98366;-70
2023/01/25 01:46:13;;;;;;;;;;;;;;;0.11;99.23;100375.13;105257;1267;99204;-70
2023/01/25 01:48:49;;;;;;;;;;;;;;;0.06;99.03;100364.85;105283;1257;97978;-70
2023/01/25 01:51:19;;;;;;;;;;;;;;;0.00;98.47;100363.06;105179;1256;97833;-70
2023/01/25 01:53:58;;;;;;;;;;;;;;;-0.06;98.04;100363.08;105059;1259;111919;-70
2023/01/25 01:56:29;;;;;;;;;;;;;;;-0.10;97.99;100361.66;105340;1264;98007;-70
2023/01/25 01:58:57;;;;;;;;;;;;;;;-0.12;97.98;100364.63;105265;1266;108775;-71
2023/01/25 02:01:24;;;;;;;;;;;;;;;-0.12;98.01;100365.91;105295;1266;97991;-70
2023/01/25 02:03:52;;;;;;;;;;;;;;;-0.11;98.10;100360.86;105364;1266;97936;-70
2023/01/25 02:06:39;;;;;;;;;;;;;;;-0.10;98.05;100357.45;105297;1256;112160;-68
2023/01/25 02:09:06;;;;;;;;;;;;;;;-0.11;98.37;100356.63;105202;1261;98216;-67
2023/01/25 02:11:34;;;;;;;;;;;;;;;-0.11;98.43;100349.98;105250;1257;99176;-67
2023/01/25 02:14:02;;;;;;;;;;;;;;;-0.11;98.34;100351.90;105308;1256;98106;-67
2023/01/25 02:16:29;;;;;;;;;;;;;;;-0.14;98.33;100342.65;105288;1257;97905;-67
2023/01/25 02:18:57;;;;;;;;;;;;;;;-0.19;98.21;100339.46;105247;1257;97994;-67
2023/01/25 02:21:25;;;;;;;;;;;;;;;-0.20;98.35;100345.38;105270;1266;100468;-67
2023/01/25 02:23:55;;;;;;;;;;;;;;;-0.21;98.22;100337.70;105254;1267;97911;-67
2023/01/25 02:26:23;;;;;;;;;;;;;;;-0.20;98.26;100336.52;105260;1257;98033;-67
2023/01/25 02:28:57;;;;;;;;;;;;;;;-0.17;98.08;100337.28;105149;1255;97892;-67
2023/01/25 02:31:24;;;;;;;;;;;;;;;-0.15;98.13;100339.11;105259;1257;112250;-67
2023/01/25 02:33:51;;;;;;;;;;;;;;;-0.15;97.93;100334.64;105137;1266;98645;-67
2023/01/25 02:36:20;;;;;;;;;;;;;;;-0.15;97.69;100331.04;105266;1256;97896;-68
2023/01/25 02:38:51;;;;;;;;;;;;;;;-0.12;97.69;100332.85;105235;1260;98650;-75
2023/01/25 02:41:34;;;;;;;;;;;;;;;-0.08;97.70;100333.25;105307;1257;97918;-70
2023/01/25 02:44:03;;;;;;;;;;;;;;;-0.08;97.51;100329.98;105315;1254;112280;-70
2023/01/25 02:46:32;;;;;;;;;;;;;;;-0.08;97.57;100329.94;105351;1267;99159;-69
2023/01/25 02:49:00;;;;;;;;;;;;;;;-0.05;97.70;100334.05;105276;1257;108501;-70
2023/01/25 02:51:28;;;;;;;;;;;;;;;-0.07;97.46;100333.98;105292;1257;98235;-71
2023/01/25 02:53:55;;;;;;;;;;;;;;;-0.09;97.43;100334.16;105268;1264;99083;-71
2023/01/25 02:56:22;;;;;;;;;;;;;;;-0.08;97.33;100330.55;105353;1266;98241;-71
2023/01/25 02:58:49;;;;;;;;;;;;;;;-0.08;97.03;100329.98;105282;1264;97981;-70
2023/01/25 03:01:22;;;;;;;;;;;;;;;-0.07;96.84;100328.41;105288;1257;98147;-70
2023/01/25 03:03:57;;;;;;;;;;;;;;;-0.10;96.63;100330.17;105132;1270;98033;-71
2023/01/25 03:06:24;;;;;;;;;;;;;;;-0.15;96.23;100323.86;105368;1257;98445;-68
2023/01/25 03:08:51;;;;;;;;;;;;;;;-0.15;96.53;100320.83;105299;1254;97966;-71
2023/01/25 03:11:18;;;;;;;;;;;;;;;-0.17;96.35;100325.09;105388;1264;97943;-71
2023/01/25 03:13:45;;;;;;;;;;;;;;;-0.16;96.28;100325.05;105239;1266;99177;-70
2023/01/25 03:16:12;;;;;;;;;;;;;;;-0.13;96.43;100326.11;105243;1257;97954;-70
2023/01/25 03:18:40;;;;;;;;;;;;;;;-0.08;96.54;100325.50;105220;1256;99245;-69
2023/01/25 03:21:08;;;;;;;;;;;;;;;-0.06;96.30;100323.69;105273;1255;97984;-71
2023/01/25 03:23:35;;;;;;;;;;;;;;;-0.08;96.12;100317.34;105312;1266;98001;-70
2023/01/25 03:26:05;;;;;;;;;;;;;;;-0.10;96.18;100318.86;105305;1266;99089;-71
2023/01/25 03:28:33;;;;;;;;;;;;;;;-0.13;96.35;100320.55;105227;1257;98601;-68
2023/01/25 03:31:02;;;;;;;;;;;;;;;-0.12;96.32;100314.20;105269;1257;97816;-68
2023/01/25 03:33:40;;;;;;;;;;;;;;;-0.13;96.41;100315.37;105258;1258;112397;-68
2023/01/25 03:36:07;;;;;;;;;;;;;;;-0.15;96.24;100316.77;105165;1257;99310;-68
2023/01/25 03:38:35;;;;;;;;;;;;;;;-0.16;96.21;100318.60;105190;1256;108659;-67
2023/01/25 03:41:02;;;;;;;;;;;;;;;-0.15;96.40;100313.98;105244;1266;97905;-70
2023/01/25 03:43:29;;;;;;;;;;;;;;;-0.14;96.48;100317.44;105324;1262;97969;-68
2023/01/25 03:45:57;;;;;;;;;;;;;;;-0.14;96.36;100320.66;105291;1267;97894;-68
2023/01/25 03:48:25;;;;;;;;;;;;;;;-0.11;96.43;100318.73;105339;1257;98809;-68
2023/01/25 03:50:54;;;;;;;;;;;;;;;-0.08;96.52;100320.95;105261;1266;108764;-71
2023/01/25 03:53:31;;;;;;;;;;;;;;;-0.05;96.33;100321.54;105283;1258;99260;-68
2023/01/25 03:55:59;;;;;;;;;;;;;;;-0.00;96.50;100319.11;105106;1262;97914;-69
2023/01/25 03:58:36;;;;;;;;;;;;;;;0.01;96.15;100319.86;105213;1267;113481;-69
2023/01/25 04:01:04;;;;;;;;;;;;;;;0.02;96.13;100316.29;105222;1265;99279;-73
2023/01/25 04:03:31;;;;;;;;;;;;;;;0.01;96.04;100316.08;105378;1268;108634;-70
2023/01/25 04:05:59;;;;;;;;;;;;;;;0.00;96.36;100314.17;105394;1255;97992;-72
2023/01/25 04:08:26;;;;;;;;;;;;;;;-0.03;96.18;100316.44;105387;1257;97977;-72
2023/01/25 04:10:53;;;;;;;;;;;;;;;-0.07;96.19;100310.79;105243;1267;99313;-72
2023/01/25 04:13:21;;;;;;;;;;;;;;;-0.08;96.49;100302.62;105456;1266;97976;-69
2023/01/25 04:15:48;;;;;;;;;;;;;;;-0.06;96.54;100305.77;105200;1256;97914;-68
2023/01/25 04:18:16;;;;;;;;;;;;;;;-0.07;96.11;100304.77;105278;1257;99024;-67
2023/01/25 04:20:43;;;;;;;;;;;;;;;-0.07;95.97;100298.39;105283;1264;97975;-69
2023/01/25 04:23:10;;;;;;;;;;;;;;;-0.08;95.93;100297.94;105279;1267;97886;-70
2023/01/25 04:25:37;;;;;;;;;;;;;;;-0.06;95.87;100293.66;105227;1258;97941;-70
2023/01/25 04:28:04;;;;;;;;;;;;;;;-0.04;95.58;100293.17;105179;1257;99242;-70
2023/01/25 04:30:32;;;;;;;;;;;;;;;-0.03;95.58;100290.45;105291;1266;97909;-72
2023/01/25 04:33:04;;;;;;;;;;;;;;;-0.03;95.58;100291.14;105321;1257;98261;-71
2023/01/25 04:35:30;;;;;;;;;;;;;;;-0.03;95.60;100295.91;105317;1264;112426;-69
2023/01/25 04:37:58;;;;;;;;;;;;;;;-0.05;95.89;100289.73;105275;1257;97924;-69
2023/01/25 04:40:26;;;;;;;;;;;;;;;-0.06;96.25;100281.72;105154;1266;108408;-70
2023/01/25 04:42:53;;;;;;;;;;;;;;;-0.08;96.27;100280.61;104984;1256;341518;-69
2023/01/25 04:45:20;;;;;;;;;;;;;;;-0.13;96.29;100277.55;105316;1254;98129;-69
2023/01/25 04:47:47;;;;;;;;;;;;;;;-0.16;96.51;100279.82;105282;1272;97981;-69
2023/01/25 04:50:15;;;;;;;;;;;;;;;-0.18;96.75;100278.58;105270;1256;99069;-71
2023/01/25 04:52:41;;;;;;;;;;;;;;;-0.16;96.96;100270.83;105221;1267;97923;-70
2023/01/25 04:55:08;;;;;;;;;;;;;;;-0.15;96.82;100272.49;105166;1266;98802;-69
2023/01/25 04:57:36;;;;;;;;;;;;;;;-0.12;97.02;100269.05;105255;1266;97957;-69
2023/01/25 05:00:04;;;;;;;;;;;;;;;-0.10;97.00;100264.47;105279;1258;98582;-68
2023/01/25 05:02:31;;;;;;;;;;;;;;;-0.07;96.77;100269.12;105293;1257;99196;-68
2023/01/25 05:04:58;;;;;;;;;;;;;;;-0.06;96.72;100269.40;105278;1254;98065;-68
2023/01/25 05:07:25;;;;;;;;;;;;;;;-0.01;97.09;100269.20;105293;1266;98837;-68
2023/01/25 05:09:52;;;;;;;;;;;;;;;0.02;96.92;100265.27;105294;1255;98400;-68
2023/01/25 05:12:19;;;;;;;;;;;;;;;0.03;96.73;100269.02;105336;1254;97919;-68
2023/01/25 05:14:45;;;;;;;;;;;;;;;0.03;96.75;100269.80;105308;1259;107984;-68
2023/01/25 05:17:12;;;;;;;;;;;;;;;0.06;96.80;100269.27;105248;1266;97912;-68
2023/01/25 05:19:39;;;;;;;;;;;;;;;0.11;97.02;100264.42;105158;1257;97899;-68
2023/01/25 05:22:06;;;;;;;;;;;;;;;0.12;96.83;100266.21;105264;1256;97884;-70
2023/01/25 05:24:34;;;;;;;;;;;;;;;0.08;96.77;100264.13;105164;1254;98589;-72
2023/01/25 05:27:02;;;;;;;;;;;;;;;0.05;96.94;100260.30;105315;1266;98003;-69
2023/01/25 05:29:30;;;;;;;;;;;;;;;0.03;96.94;100259.71;105249;1257;97899;-68
2023/01/25 05:31:58;;;;;;;;;;;;;;;0.01;96.81;100254.45;105392;1266;99239;-70
2023/01/25 05:34:25;;;;;;;;;;;;;;;0.00;97.18;100250.56;105343;1274;112369;-71
2023/01/25 05:36:52;;;;;;;;;;;;;;;0.02;97.17;100242.67;105312;1266;99175;-68
2023/01/25 05:39:19;;;;;;;;;;;;;;;-0.00;97.25;100242.89;105323;1256;97913;-70
2023/01/25 05:41:46;;;;;;;;;;;;;;;-0.03;97.11;100241.05;105351;1266;97985;-69
2023/01/25 05:44:12;;;;;;;;;;;;;;;-0.08;97.21;100240.63;105162;1267;98779;-69
2023/01/25 05:46:39;;;;;;;;;;;;;;;-0.12;97.13;100240.45;105165;1266;98017;-69
2023/01/25 05:49:06;;;;;;;;;;;;;;;-0.09;97.36;100231.71;105293;1255;108504;-70
2023/01/25 05:51:34;;;;;;;;;;;;;;;-0.07;97.46;100234.77;105272;1257;97832;-68
2023/01/25 05:54:01;;;;;;;;;;;;;;;-0.05;97.30;100231.52;105313;1266;97921;-70
2023/01/25 05:56:28;;;;;;;;;;;;;;;-0.03;97.03;100230.53;105097;1257;97861;-70
2023/01/25 05:58:56;;;;;;;;;;;;;;;-0.04;96.81;100233.17;105206;1254;98000;-70
2023/01/25 06:01:23;;;;;;;;;;;;;;;-0.05;96.80;100235.58;105245;1268;97941;-69
2023/01/25 06:03:50;;;;;;;;;;;;;;;-0.04;96.87;100235.17;105263;1258;99181;-71
2023/01/25 06:06:17;;;;;;;;;;;;;;;-0.04;96.63;100234.96;105290;1253;97892;-68
2023/01/25 06:08:44;;;;;;;;;;;;;;;-0.03;96.76;100236.98;105242;1258;97906;-70
2023/01/25 06:11:14;;;;;;;;;;;;;;;-0.01;96.82;100237.45;105209;1257;99220;-70
2023/01/25 06:13:41;;;;;;;;;;;;;;;0.01;96.75;100234.71;105295;1256;108484;-70
2023/01/25 06:16:08;;;;;;;;;;;;;;;0.01;96.75;100234.67;105129;1257;97991;-69
2023/01/25 06:18:35;;;;;;;;;;;;;;;0.05;96.86;100237.75;105181;1266;99220;-68
2023/01/25 06:21:03;;;;;;;;;;;;;;;0.10;96.90;100239.26;105165;1261;97990;-68
2023/01/25 06:23:30;;;;;;;;;;;;;;;0.14;96.93;100235.48;105284;1259;97884;-68
2023/01/25 06:25:58;;;;;;;;;;;;;;;0.13;96.67;100233.73;105293;1257;97954;-68
2023/01/25 06:28:25;;;;;;;;;;;;;;;0.10;96.58;100235.27;105265;1253;99203;-68
2023/01/25 06:30:52;;;;;;;;;;;;;;;0.07;96.62;100235.17;105250;1258;97908;-68
2023/01/25 06:33:19;;;;;;;;;;;;;;;0.04;96.82;100235.76;105319;1256;98592;-68
2023/01/25 06:35:46;;;;;;;;;;;;;;;-0.01;96.98;100235.99;105306;1257;98002;-67
2023/01/25 06:38:13;;;;;;;;;;;;;;;-0.06;96.98;100230.52;105258;1257;99206;-68
2023/01/25 06:40:40;;;;;;;;;;;;;;;-0.07;97.18;100236.56;105223;1273;99096;-67
2023/01/25 06:43:08;;;;;;;;;;;;;;;-0.06;97.19;100233.70;105130;1256;97979;-72
2023/01/25 06:45:35;;;;;;;;;;;;;;;-0.01;97.34;100230.98;105154;1257;98440;-68
2023/01/25 06:48:03;;;;;;;;;;;;;;;0.04;97.22;100230.48;105324;1267;97988;-76
2023/01/25 06:50:30;;;;;;;;;;;;;;;0.05;96.98;100231.83;105334;1268;97893;-71
2023/01/25 06:52:57;;;;;;;;;;;;;;;0.07;97.12;100232.98;105415;1256;98267;-69
2023/01/25 06:55:24;;;;;;;;;;;;;;;0.09;96.87;100231.73;105319;1267;111701;-70
2023/01/25 06:57:51;;;;;;;;;;;;;;;0.11;97.04;100228.92;105247;1257;99293;-69
2023/01/25 07:00:18;;;;;;;;;;;;;;;0.16;97.08;100222.09;105352;1266;99217;-69
2023/01/25 07:02:45;;;;;;;;;;;;;;;0.18;96.83;100227.11;105298;1254;97979;-69
2023/01/25 07:05:12;;;;;;;;;;;;;;;0.13;96.61;100226.36;105203;1257;97936;-69
2023/01/25 07:07:43;;;;;;;;;;;;;;;0.13;96.79;100225.40;105183;1257;97975;-70
2023/01/25 07:10:10;;;;;;;;;;;;;;;0.12;96.89;100222.86;105112;1266;98615;-70
2023/01/25 07:12:37;;;;;;;;;;;;;;;0.13;97.12;100222.04;105268;1258;97921;-70
2023/01/25 07:15:04;;;;;;;;;;;;;;;0.08;96.81;100220.92;105300;1256;97975;-70
2023/01/25 07:17:31;;;;;;;;;;;;;;;0.06;96.76;100215.89;105279;1264;99223;-70
2023/01/25 07:19:58;;;;;;;;;;;;;;;0.04;96.80;100214.89;105321;1254;97968;-70
2023/01/25 07:22:25;;;;;;;;;;;;;;;0.03;96.59;100213.48;105338;1258;97991;-70
2023/01/25 07:24:52;;;;;;;;;;;;;;;0.04;96.68;100210.17;105253;1270;97989;-68
2023/01/25 07:27:20;;;;;;;;;;;;;;;0.06;96.78;100212.73;105116;1264;98575;-70
2023/01/25 07:29:47;;;;;;;;;;;;;;;0.08;96.91;100210.88;105254;1257;97918;-70
2023/01/25 07:32:14;;;;;;;;;;;;;;;0.08;96.54;100211.24;105278;1257;99220;-69
2023/01/25 07:34:41;;;;;;;;;;;;;;;0.09;96.55;100206.11;105307;1258;97971;-70
2023/01/25 07:37:09;;;;;;;;;;;;;;;0.09;96.38;100201.63;105231;1256;97988;-70
2023/01/25 07:39:35;;;;;;;;;;;;;;;0.10;96.41;100203.74;105238;1256;99197;-70
2023/01/25 07:42:02;;;;;;;;;;;;;;;0.14;96.47;100199.86;105263;1255;98036;-69
2023/01/25 07:44:29;;;;;;;;;;;;;;;0.17;96.19;100198.20;105252;1268;99199;-68
2023/01/25 07:46:56;;;;;;;;;;;;;;;0.20;96.31;100197.95;105196;1266;97960;-68
2023/01/25 07:49:24;;;;;;;;;;;;;;;0.27;96.42;100195.63;105260;1257;97912;-68
2023/01/25 07:51:51;;;;;;;;;;;;;;;0.34;96.01;100196.46;105204;1254;98016;-68
2023/01/25 07:54:18;;;;;;;;;;;;;;;0.35;95.51;100196.98;105260;1257;97894;-68
2023/01/25 07:56:45;;;;;;;;;;;;;;;0.30;94.96;100190.15;105211;1258;97909;-68
2023/01/25 07:59:13;;;;;;;;;;;;;;;0.34;95.42;100191.48;105297;1258;99242;-68
2023/01/25 08:01:40;;;;;;;;;;;;;;;0.36;95.53;100182.23;105056;1257;97912;-68
2023/01/25 08:04:08;;;;;;;;;;;;;;;0.36;95.20;100177.02;105199;1263;98071;-67
2023/01/25 08:06:37;;;;;;;;;;;;;;;0.32;94.87;100174.27;105236;1275;98644;-69
2023/01/25 08:09:07;;;;;;;;;;;;;;;0.34;95.26;100172.48;105110;1264;97858;-72
2023/01/25 08:11:34;;;;;;;;;;;;;;;0.36;94.93;100169.23;105334;1254;108601;-71
2023/01/25 08:14:02;;;;;;;;;;;;;;;0.41;94.98;100170.04;105311;1254;97979;-68
2023/01/25 08:16:30;;;;;;;;;;;;;;;0.49;95.08;100166.73;105306;1254;97902;-70
2023/01/25 08:18:58;;;;;;;;;;;;;;;0.59;95.23;100168.01;105302;1254;112177;-69
2023/01/25 08:21:29;;;;;;;;;;;;;;;0.65;94.58;100162.81;105298;1267;99241;-70
2023/01/25 08:23:58;;;;;;;;;;;;;;;0.64;93.23;100167.67;105256;1256;108689;-69
2023/01/25 08:26:25;;;;;;;;;;;;;;;0.58;92.54;100167.71;105431;1256;97914;-70
2023/01/25 08:28:53;;;;;;;;;;;;;;;0.57;92.84;100172.50;105267;1257;98286;-70
2023/01/25 08:31:22;;;;;;;;;;;;;;;0.61;93.53;100175.27;105229;1257;111642;-70
2023/01/25 08:33:49;;;;;;;;;;;;;;;0.59;93.34;100167.80;105362;1257;97887;-69
2023/01/25 08:36:17;;;;;;;;;;;;;;;0.58;93.09;100164.70;105213;1257;97902;-70
2023/01/25 08:38:45;;;;;;;;;;;;;;;0.60;93.44;100159.05;105305;1254;97963;-68
2023/01/25 08:41:13;;;;;;;;;;;;;;;0.66;93.17;100154.77;105356;1256;97963;-69
2023/01/25 08:43:40;;;;;;;;;;;;;;;0.70;93.00;100153.34;105212;1257;112145;-69
2023/01/25 08:46:08;;;;;;;;;;;;;;;0.76;93.03;100152.25;105316;1254;99175;-68
2023/01/25 08:48:36;;;;;;;;;;;;;;;0.86;93.41;100149.52;105233;1257;108141;-69
2023/01/25 08:51:04;;;;;;;;;;;;;;;0.92;92.69;100145.31;105257;1257;97991;-70
2023/01/25 08:53:31;;;;;;;;;;;;;;;0.95;91.69;100140.76;105328;1266;98043;-69
2023/01/25 08:56:03;;;;;;;;;;;;;;;0.95;91.22;100144.05;105302;1258;112184;-70
2023/01/25 08:58:30;;;;;;;;;;;;;;;0.99;91.29;100145.33;105315;1256;99188;-70
2023/01/25 09:01:05;;;;;;;;;;;;;;;1.04;91.67;100140.08;105217;1257;109791;-71
2023/01/25 09:03:36;;;;;;;;;;;;;;;1.12;92.11;100139.92;105295;1257;97973;-70
2023/01/25 09:06:04;;;;;;;;;;;;;;;1.17;91.84;100136.95;105293;1258;99086;-70
2023/01/25 09:08:31;;;;;;;;;;;;;;;1.20;91.83;100133.77;105352;1254;112278;-69
2023/01/25 09:11:03;;;;;;;;;;;;;;;1.18;91.20;100134.53;105253;1257;99207;-70
2023/01/25 09:13:30;;;;;;;;;;;;;;;1.14;90.87;100129.61;105152;1257;108560;-67
2023/01/25 09:16:00;;;;;;;;;;;;;;;1.13;90.31;100130.23;105183;1257;99047;-68
2023/01/25 09:18:28;;;;;;;;;;;;;;;1.13;90.00;100130.22;105391;1264;99098;-68
2023/01/25 09:20:55;;;;;;;;;;;;;;;1.20;90.42;100127.38;105268;1259;112205;-68
2023/01/25 09:23:22;;;;;;;;;;;;;;;1.22;89.84;100124.41;105317;1254;97937;-67
2023/01/25 09:26:00;;;;;;;;;;;;;;;1.22;89.48;100122.26;105270;1258;97927;-68
2023/01/25 09:28:28;;;;;;;;;;;;;;;1.25;89.79;100121.95;105171;1266;97912;-68
2023/01/25 09:30:57;;;;;;;;;;;;;;;1.28;89.44;100115.75;105180;1257;98680;-69
2023/01/25 09:33:44;;;;;;;;;;;;;;;1.30;89.52;100115.48;105339;1256;114022;-76
2023/01/25 09:36:11;;;;;;;;;;;;;;;1.29;88.83;100114.95;105370;1254;99386;-69
2023/01/25 09:38:41;;;;;;;;;;;;;;;1.28;89.01;100111.42;105315;1267;110320;-69
2023/01/25 09:41:08;;;;;;;;;;;;;;;1.30;89.65;100107.13;105266;1257;99329;-70
2023/01/25 09:43:48;;;;;;;;;;;;;;;1.39;89.83;100106.01;105227;1254;97905;-70
2023/01/25 09:46:21;;;;;;;;;;;;;;;1.48;90.23;100105.91;105245;1254;112289;-71
2023/01/25 09:48:55;;;;;;;;;;;;;;;1.54;89.93;100100.21;105293;1254;98838;-70
2023/01/25 09:51:37;;;;;;;;;;;;;;;1.60;89.50;100097.48;105243;1254;109469;-70
2023/01/25 09:54:06;;;;;;;;;;;;;;;1.64;89.49;100093.24;105225;1254;99203;-71
2023/01/25 09:56:35;;;;;;;;;;;;;;;1.67;87.97;100089.95;105239;1257;99194;-70
2023/01/25 09:59:04;;;;;;;;;;;;;;;1.66;88.04;100089.54;105223;1257;112129;-69
2023/01/25 10:01:50;;;;;;;;;;;;;;;1.65;87.91;100087.67;105316;1252;98234;-69
2023/01/25 10:04:34;;;;;;;;;;;;;;;1.64;87.69;100075.83;105284;1257;109560;-69
2023/01/25 10:10:13;;;;;;;;;;;;;;;1.71;88.04;100063.80;104596;1267;98744;-71
2023/01/25 10:12:41;;;;;;;;;;;;;;;1.59;87.46;100062.39;104578;1265;112206;-71
2023/01/25 10:15:18;;;;;;;;;;;;;;;1.56;87.84;100057.59;104468;1267;98040;-71
2023/01/25 10:17:47;;;;;;;;;;;;;;;1.62;88.15;100052.32;104433;1261;108791;-71
2023/01/25 10:20:22;;;;;;;;;;;;;;;1.72;88.68;100047.45;104500;1262;97867;-71
2023/01/25 10:22:58;;;;;;;;;;;;;;;1.73;87.19;100044.91;104554;1261;98128;-71
2023/01/25 10:25:46;;;;;;;;;;;;;;;1.67;86.44;100039.67;104578;1267;112391;-68
2023/01/25 10:28:19;;;;;;;;;;;;;;;1.61;86.13;100032.95;104314;1265;98219;-70
2023/01/25 10:30:58;;;;;;;;;;;;;;;1.63;85.88;100028.77;104558;1274;108831;-71
2023/01/25 10:33:27;;;;;;;;;;;;;;;1.57;84.52;100027.61;104518;1266;98084;-68
2023/01/25 10:35:54;;;;;;;;;;;;;;;1.48;84.60;100026.30;104665;1260;98005;-68
2023/01/25 10:38:30;;;;;;;;;;;;;;;1.48;85.86;100023.06;104543;1262;98004;-68
2023/01/25 10:41:11;;;;;;;;;;;;;;;1.47;85.92;100022.91;104451;1261;99313;-68
2023/01/25 10:43:38;;;;;;;;;;;;;;;1.46;85.82;100014.65;104556;1265;108636;-68
2023/01/25 10:46:16;;;;;;;;;;;;;;;1.47;84.96;100009.65;104554;1267;97947;-67
2023/01/25 10:48:43;;;;;;;;;;;;;;;1.46;84.19;100006.30;105098;1265;97902;-67
2023/01/25 10:51:26;;;;;;;;;;;;;;;1.48;84.44;100001.66;105058;1254;97903;-69
2023/01/25 10:53:58;;;;;;;;;;;;;;;1.45;84.31;99999.98;105063;1258;99216;-68
2023/01/25 10:56:26;;;;;;;;;;;;;;;1.45;85.17;99999.90;105113;1257;106573;-72
2023/01/25 10:59:05;;;;;;;;;;;;;;;1.44;85.16;100003.74;105203;1257;98663;-70
2023/01/25 11:01:38;;;;;;;;;;;;;;;1.41;85.52;100000.84;105210;1257;99143;-69
2023/01/25 11:04:34;;;;;;;;;;;;;;;1.41;85.51;99997.23;105168;1255;112431;-70
2023/01/25 11:07:03;;;;;;;;;;;;;;;1.42;84.83;99996.61;105146;1257;99404;-69
2023/01/25 11:09:32;;;;;;;;;;;;;;;1.43;85.31;99994.14;105161;1269;108637;-69
2023/01/25 11:12:15;;;;;;;;;;;;;;;1.46;85.78;99988.42;105212;1270;97944;-69
2023/01/25 11:14:43;;;;;;;;;;;;;;;1.50;85.60;99981.74;105204;1259;97908;-69
2023/01/25 11:17:30;;;;;;;;;;;;;;;1.48;84.04;99975.80;105152;1258;111715;-69
2023/01/25 11:20:23;;;;;;;;;;;;;;;1.45;83.34;99968.93;105198;1257;99098;-69
2023/01/25 11:22:52;;;;;;;;;;;;;;;1.41;82.90;99964.23;105019;1257;107883;-69
2023/01/25 11:25:26;;;;;;;;;;;;;;;1.40;83.72;99961.95;105213;1266;99098;-69
2023/01/25 11:28:10;;;;;;;;;;;;;;;1.38;83.46;99952.57;105222;1258;97832;-69
2023/01/25 11:30:37;;;;;;;;;;;;;;;1.35;84.12;99949.92;105234;1256;111269;-68
2023/01/25 11:33:08;;;;;;;;;;;;;;;1.34;84.15;99952.54;105125;1254;97951;-68
2023/01/25 11:35:39;;;;;;;;;;;;;;;1.34;84.24;99944.80;105169;1258;109582;-69
2023/01/25 11:38:13;;;;;;;;;;;;;;;1.32;83.96;99939.79;105036;1254;98137;-69
2023/01/25 11:40:49;;;;;;;;;;;;;;;1.35;84.58;99941.63;105310;1254;98179;-69
2023/01/25 11:43:31;;;;;;;;;;;;;;;1.39;84.47;99940.77;105298;1256;113438;-69
2023/01/25 11:46:07;;;;;;;;;;;;;;;1.45;84.62;99937.10;105286;1267;99276;-71
2023/01/25 11:48:47;;;;;;;;;;;;;;;1.53;84.69;99933.21;105320;1254;108569;-70
2023/01/25 11:51:21;;;;;;;;;;;;;;;1.58;83.46;99931.08;105263;1257;97966;-69
2023/01/25 11:53:59;;;;;;;;;;;;;;;1.56;82.84;99930.15;105299;1257;97813;-70
2023/01/25 11:56:35;;;;;;;;;;;;;;;1.50;82.01;99925.05;105268;1257;112251;-70
2023/01/25 11:59:24;;;;;;;;;;;;;;;1.37;81.23;99923.62;105288;1257;100717;-70
2023/01/25 12:02:10;;;;;;;;;;;;;;;1.31;82.55;99916.86;105244;1257;108616;-67
2023/01/25 12:04:43;;;;;;;;;;;;;;;1.36;82.84;99914.48;105173;1254;97914;-68
2023/01/25 12:07:21;;;;;;;;;;;;;;;1.40;83.07;99906.27;105138;1254;97906;-67
2023/01/25 12:09:50;;;;;;;;;;;;;;;1.42;82.71;99902.02;105201;1256;110855;-67
2023/01/25 12:12:18;;;;;;;;;;;;;;;1.43;82.78;99897.05;105150;1256;99257;-67
2023/01/25 12:14:47;;;;;;;;;;;;;;;1.43;82.66;99893.98;105206;1257;97937;-69
2023/01/25 12:17:33;;;;;;;;;;;;;;;1.39;82.20;99887.33;105148;1264;98023;-69
2023/01/25 12:20:30;;;;;;;;;;;;;;;1.44;83.46;99875.39;105286;1256;97912;-70
2023/01/25 12:23:17;;;;;;;;;;;;;;;1.54;83.09;99865.95;104668;1264;112045;-69
2023/01/25 12:26:08;;;;;;;;;;;;;;;1.55;81.82;99859.50;105167;1256;99308;-68
2023/01/25 12:28:43;;;;;;;;;;;;;;;1.51;81.25;99855.38;105241;1257;108677;-67
2023/01/25 12:31:34;;;;;;;;;;;;;;;1.47;81.26;99848.67;105145;1254;99105;-70
2023/01/25 12:34:02;;;;;;;;;;;;;;;1.43;80.76;99841.74;105235;1254;97927;-69
2023/01/25 12:36:37;;;;;;;;;;;;;;;1.36;81.07;99838.85;105357;1257;112183;-70
2023/01/25 12:39:15;;;;;;;;;;;;;;;1.37;81.13;99842.71;105265;1257;99533;-70
2023/01/25 12:41:57;;;;;;;;;;;;;;;1.40;80.91;99847.92;105338;1257;109101;-70
2023/01/25 12:44:26;;;;;;;;;;;;;;;1.42;81.08;99849.69;105179;1256;98003;-69
2023/01/25 12:47:11;;;;;;;;;;;;;;;1.44;80.62;99843.89;105248;1264;98719;-70
2023/01/25 12:49:51;;;;;;;;;;;;;;;1.46;81.51;99840.38;105199;1257;112241;-70
2023/01/25 12:52:21;;;;;;;;;;;;;;;1.51;81.12;99841.30;105313;1256;99169;-70